createdAt,value
2022-08-24T00:00:50.617Z,22.20
2022-08-24T00:03:17.302Z,22.10
2022-08-24T00:05:43.948Z,22.00
2022-08-24T00:08:10.494Z,22.00
2022-08-24T00:10:37.100Z,21.90
2022-08-24T00:13:03.674Z,21.90
2022-08-24T00:15:30.271Z,21.90
2022-08-24T00:17:56.824Z,21.90
2022-08-24T00:20:23.412Z,21.90
2022-08-24T00:22:50.473Z,21.90
2022-08-24T00:25:17.786Z,21.80
2022-08-24T00:27:45.031Z,21.70
2022-08-24T00:30:11.590Z,21.70
2022-08-24T00:32:38.149Z,21.70
2022-08-24T00:35:05.299Z,21.70
2022-08-24T00:37:31.885Z,21.60
2022-08-24T00:39:59.318Z,21.60
2022-08-24T00:42:25.915Z,21.50
2022-08-24T00:44:52.484Z,21.50
2022-08-24T00:47:19.263Z,21.50
2022-08-24T00:49:45.901Z,21.40
2022-08-24T00:52:12.460Z,21.40
2022-08-24T00:54:41.731Z,21.30
2022-08-24T00:57:12.616Z,21.20
2022-08-24T00:59:39.146Z,21.20
2022-08-24T01:02:14.295Z,21.20
2022-08-24T01:04:42.636Z,21.20
2022-08-24T01:07:09.206Z,21.00
2022-08-24T01:09:35.746Z,20.90
2022-08-24T01:12:02.365Z,20.90
2022-08-24T01:14:29.697Z,20.80
2022-08-24T01:17:15.121Z,20.80
2022-08-24T01:19:42.075Z,20.80
2022-08-24T01:22:08.607Z,20.90
2022-08-24T01:24:35.431Z,20.90
2022-08-24T01:27:01.971Z,20.90
2022-08-24T01:29:31.338Z,21.00
2022-08-24T01:31:57.868Z,21.00
2022-08-24T01:34:24.439Z,21.00
2022-08-24T01:36:51.103Z,21.00
2022-08-24T01:39:17.930Z,21.00
2022-08-24T01:41:44.563Z,20.90
2022-08-24T01:44:11.141Z,20.90
2022-08-24T01:46:37.936Z,20.90
2022-08-24T01:49:05.367Z,20.90
2022-08-24T01:51:32.008Z,20.90
2022-08-24T01:53:58.628Z,20.90
2022-08-24T01:56:25.193Z,20.80
2022-08-24T01:58:52.049Z,20.90
2022-08-24T02:01:18.701Z,20.90
2022-08-24T02:03:45.236Z,20.90
2022-08-24T02:06:15.165Z,20.90
2022-08-24T02:08:42.073Z,20.90
2022-08-24T02:11:08.847Z,20.90
2022-08-24T02:13:35.544Z,20.90
2022-08-24T02:16:02.123Z,20.90
2022-08-24T02:18:28.665Z,20.90
2022-08-24T02:20:55.338Z,20.90
2022-08-24T02:23:22.350Z,20.90
2022-08-24T02:25:49.035Z,20.90
2022-08-24T02:28:15.668Z,20.90
2022-08-24T02:30:42.266Z,20.90
2022-08-24T02:33:08.848Z,20.90
2022-08-24T02:35:35.438Z,20.90
2022-08-24T02:38:05.379Z,20.90
2022-08-24T02:40:32.394Z,20.90
2022-08-24T02:42:58.932Z,20.90
2022-08-24T02:45:25.554Z,20.90
2022-08-24T02:47:52.080Z,20.90
2022-08-24T02:50:18.763Z,20.90
2022-08-24T02:52:45.323Z,20.90
2022-08-24T02:55:11.893Z,20.90
2022-08-24T02:57:38.740Z,20.90
2022-08-24T03:00:09.916Z,20.90
2022-08-24T03:02:37.076Z,20.90
2022-08-24T03:05:03.745Z,20.90
2022-08-24T03:07:30.335Z,20.90
2022-08-24T03:09:56.933Z,20.80
2022-08-24T03:12:23.522Z,20.80
2022-08-24T03:14:50.192Z,20.80
2022-08-24T03:17:16.733Z,20.70
2022-08-24T03:19:43.348Z,20.70
2022-08-24T03:22:09.987Z,20.70
2022-08-24T03:24:36.599Z,20.70
2022-08-24T03:27:04.219Z,20.60
2022-08-24T03:29:33.822Z,20.60
2022-08-24T03:32:00.576Z,20.50
2022-08-24T03:34:27.229Z,20.50
2022-08-24T03:36:54.169Z,20.50
2022-08-24T03:39:20.774Z,20.50
2022-08-24T03:41:47.379Z,20.50
2022-08-24T03:44:13.930Z,20.40
2022-08-24T03:46:40.566Z,20.40
2022-08-24T03:49:08.443Z,20.30
2022-08-24T03:51:35.469Z,20.30
2022-08-24T03:54:02.145Z,20.30
2022-08-24T03:56:28.723Z,20.20
2022-08-24T03:58:55.360Z,20.10
2022-08-24T04:01:21.931Z,20.10
2022-08-24T04:03:49.043Z,20.10
2022-08-24T04:06:16.085Z,20.10
2022-08-24T04:08:44.045Z,20.10
2022-08-24T04:11:10.602Z,20.10
2022-08-24T04:13:37.247Z,20.10
2022-08-24T04:16:03.823Z,20.10
2022-08-24T04:18:30.408Z,20.10
2022-08-24T04:20:56.999Z,20.10
2022-08-24T04:23:23.586Z,20.10
2022-08-24T04:25:55.660Z,20.10
2022-08-24T04:28:23.632Z,20.10
2022-08-24T04:30:53.012Z,20.10
2022-08-24T04:33:19.533Z,20.10
2022-08-24T04:35:47.552Z,20.00
2022-08-24T04:38:14.125Z,20.00
2022-08-24T04:40:40.741Z,20.00
2022-08-24T04:43:07.350Z,20.00
2022-08-24T04:45:34.364Z,20.00
2022-08-24T04:48:01.009Z,20.00
2022-08-24T04:50:27.713Z,20.00
2022-08-24T04:52:54.273Z,20.00
2022-08-24T04:55:20.877Z,20.00
2022-08-24T04:57:47.421Z,20.00
2022-08-24T05:00:14.051Z,19.90
2022-08-24T05:02:44.730Z,19.90
2022-08-24T05:05:11.682Z,19.90
2022-08-24T05:07:38.269Z,19.90
2022-08-24T05:10:04.846Z,19.90
2022-08-24T05:12:33.969Z,19.90
2022-08-24T05:15:00.486Z,19.90
2022-08-24T05:17:27.111Z,19.90
2022-08-24T05:19:53.718Z,19.90
2022-08-24T05:22:20.681Z,19.90
2022-08-24T05:24:47.260Z,19.90
2022-08-24T05:27:14.308Z,19.90
2022-08-24T05:29:41.028Z,19.90
2022-08-24T05:32:07.668Z,19.90
2022-08-24T05:34:34.390Z,19.90
2022-08-24T05:37:00.962Z,19.90
2022-08-24T05:39:28.437Z,20.00
2022-08-24T05:41:55.016Z,20.00
2022-08-24T05:44:21.580Z,20.00
2022-08-24T05:46:48.180Z,20.00
2022-08-24T05:49:14.957Z,20.10
2022-08-24T05:51:42.632Z,20.10
2022-08-24T05:54:09.529Z,20.20
2022-08-24T05:56:36.148Z,20.20
2022-08-24T05:59:02.706Z,20.20
2022-08-24T06:01:31.682Z,20.20
2022-08-24T06:03:58.783Z,20.30
2022-08-24T06:06:25.422Z,20.40
2022-08-24T06:08:51.970Z,20.50
2022-08-24T06:11:18.567Z,20.50
2022-08-24T06:13:45.209Z,20.50
2022-08-24T06:16:23.616Z,20.60
2022-08-24T06:18:50.634Z,20.70
2022-08-24T06:21:17.595Z,20.70
2022-08-24T06:23:44.926Z,20.80
2022-08-24T06:26:32.400Z,20.90
2022-08-24T06:29:00.273Z,21.00
2022-08-24T06:31:27.345Z,21.00
2022-08-24T06:33:55.623Z,21.10
2022-08-24T06:36:22.662Z,21.10
2022-08-24T06:38:49.454Z,21.20
2022-08-24T06:41:16.635Z,21.30
2022-08-24T06:43:43.200Z,21.30
2022-08-24T06:46:09.823Z,21.40
2022-08-24T06:48:36.420Z,21.50
2022-08-24T06:51:03.069Z,21.60
2022-08-24T06:53:30.047Z,21.70
2022-08-24T06:55:57.395Z,21.80
2022-08-24T06:58:23.945Z,21.90
2022-08-24T07:00:50.777Z,22.00
2022-08-24T07:03:19.000Z,22.10
2022-08-24T07:05:46.427Z,22.20
2022-08-24T07:08:13.041Z,22.20
2022-08-24T07:10:39.669Z,22.30
2022-08-24T07:13:06.703Z,22.30
2022-08-24T07:15:34.410Z,22.40
2022-08-24T07:18:01.259Z,22.50
2022-08-24T07:20:27.893Z,22.60
2022-08-24T07:22:54.613Z,22.60
2022-08-24T07:25:21.246Z,22.70
2022-08-24T07:27:47.995Z,22.70
2022-08-24T07:30:26.996Z,22.80
2022-08-24T07:32:54.422Z,22.90
2022-08-24T07:35:21.114Z,23.00
2022-08-24T07:37:47.753Z,23.00
2022-08-24T07:40:14.455Z,23.10
2022-08-24T07:42:41.140Z,23.10
2022-08-24T07:45:07.818Z,23.10
2022-08-24T07:47:39.511Z,23.20
2022-08-24T07:50:07.256Z,23.30
2022-08-24T07:52:33.890Z,23.40
2022-08-24T07:55:01.498Z,23.60
2022-08-24T07:57:28.172Z,23.70
2022-08-24T07:59:54.874Z,23.80
2022-08-24T08:02:21.553Z,23.90
2022-08-24T08:04:48.448Z,24.00
2022-08-24T08:07:17.227Z,24.10
2022-08-24T08:09:43.966Z,24.30
2022-08-24T08:12:10.793Z,24.50
2022-08-24T08:14:38.433Z,24.60
2022-08-24T08:17:05.108Z,24.70
2022-08-24T08:19:33.080Z,24.90
2022-08-24T08:22:38.382Z,25.00
2022-08-24T08:25:07.494Z,25.20
2022-08-24T08:27:34.945Z,25.40
2022-08-24T08:30:01.753Z,25.50
2022-08-24T08:32:28.491Z,25.60
2022-08-24T08:35:00.093Z,25.80
2022-08-24T08:37:28.876Z,25.90
2022-08-24T08:39:55.504Z,25.90
2022-08-24T08:42:22.306Z,26.10
2022-08-24T08:44:49.006Z,26.20
2022-08-24T08:47:15.603Z,26.30
2022-08-24T08:49:42.478Z,26.40
2022-08-24T08:52:09.183Z,26.50
2022-08-24T08:54:35.748Z,26.70
2022-08-24T08:57:02.378Z,26.90
2022-08-24T08:59:29.154Z,26.90
2022-08-24T09:01:55.859Z,27.00
2022-08-24T09:04:23.255Z,27.10
2022-08-24T09:06:50.068Z,27.20
2022-08-24T09:09:16.602Z,27.30
2022-08-24T09:11:43.161Z,27.40
2022-08-24T09:14:09.695Z,27.60
2022-08-24T09:16:36.379Z,27.70
2022-08-24T09:19:02.949Z,27.80
2022-08-24T09:21:29.789Z,27.90
2022-08-24T09:23:56.471Z,28.00
2022-08-24T09:26:23.273Z,28.00
2022-08-24T09:28:49.945Z,28.10
2022-08-24T09:31:16.621Z,28.20
2022-08-24T09:33:45.313Z,28.20
2022-08-24T09:36:12.386Z,28.30
2022-08-24T09:38:38.960Z,28.40
2022-08-24T09:41:06.170Z,28.40
2022-08-24T09:43:32.740Z,28.40
2022-08-24T09:45:59.455Z,28.30
2022-08-24T09:48:26.286Z,28.40
2022-08-24T09:50:52.851Z,28.40
2022-08-24T09:53:19.511Z,28.40
2022-08-24T09:55:46.295Z,28.40
2022-08-24T09:58:12.894Z,28.50
2022-08-24T10:00:39.578Z,28.60
2022-08-24T10:03:06.183Z,28.60
2022-08-24T10:05:36.702Z,28.80
2022-08-24T10:08:04.935Z,28.90
2022-08-24T10:10:32.043Z,29.00
2022-08-24T10:12:59.917Z,29.10
2022-08-24T10:15:26.456Z,29.10
2022-08-24T10:17:53.390Z,29.20
2022-08-24T10:20:20.283Z,29.30
2022-08-24T10:22:46.906Z,29.40
2022-08-24T10:25:15.312Z,29.50
2022-08-24T10:27:42.026Z,29.30
2022-08-24T10:30:08.661Z,29.30
2022-08-24T10:32:35.243Z,29.30
2022-08-24T10:35:01.922Z,29.50
2022-08-24T10:37:28.517Z,29.50
2022-08-24T10:40:01.875Z,29.60
2022-08-24T10:42:48.444Z,29.60
2022-08-24T10:45:14.979Z,29.60
2022-08-24T10:47:41.552Z,29.60
2022-08-24T10:50:08.220Z,29.60
2022-08-24T10:52:34.882Z,29.60
2022-08-24T10:55:01.445Z,29.70
2022-08-24T10:57:28.417Z,29.80
2022-08-24T10:59:55.642Z,29.90
2022-08-24T11:02:22.790Z,29.90
2022-08-24T11:04:49.473Z,29.90
2022-08-24T11:07:16.590Z,30.10
2022-08-24T11:09:43.240Z,30.20
2022-08-24T11:12:09.798Z,30.30
2022-08-24T11:14:36.350Z,30.40
2022-08-24T11:17:02.970Z,30.50
2022-08-24T11:19:29.541Z,30.50
2022-08-24T11:21:58.440Z,30.60
2022-08-24T11:24:25.063Z,30.70
2022-08-24T11:26:53.806Z,30.90
2022-08-24T11:29:23.115Z,31.00
2022-08-24T11:31:50.489Z,31.20
2022-08-24T11:34:17.399Z,31.30
2022-08-24T11:36:43.962Z,31.30
2022-08-24T11:39:10.575Z,31.30
2022-08-24T11:41:40.181Z,31.50
2022-08-24T11:44:07.460Z,31.70
2022-08-24T11:46:34.149Z,31.80
2022-08-24T11:49:01.231Z,31.70
2022-08-24T11:51:27.849Z,31.70
2022-08-24T11:53:54.491Z,31.80
2022-08-24T11:56:21.539Z,31.90
2022-08-24T11:58:52.058Z,32.10
2022-08-24T12:01:18.994Z,32.20
2022-08-24T12:03:48.366Z,32.30
2022-08-24T12:06:18.966Z,32.40
2022-08-24T12:08:46.451Z,32.50
2022-08-24T12:11:13.366Z,32.60
2022-08-24T12:13:39.922Z,32.60
2022-08-24T12:16:07.654Z,32.70
2022-08-24T12:18:34.391Z,32.70
2022-08-24T12:21:00.975Z,32.80
2022-08-24T12:23:28.601Z,32.60
2022-08-24T12:26:04.537Z,32.60
2022-08-24T12:28:32.104Z,32.60
2022-08-24T12:30:58.705Z,32.40
2022-08-24T12:33:25.301Z,32.20
2022-08-24T12:35:51.879Z,32.00
2022-08-24T12:38:18.454Z,31.80
2022-08-24T12:40:45.036Z,31.70
2022-08-24T12:43:11.712Z,31.50
2022-08-24T12:45:38.313Z,31.30
2022-08-24T12:48:05.036Z,31.20
2022-08-24T12:50:32.141Z,31.10
2022-08-24T12:52:58.737Z,31.10
2022-08-24T12:55:26.076Z,31.40
2022-08-24T12:57:57.981Z,31.70
2022-08-24T13:00:27.295Z,31.70
2022-08-24T13:02:57.062Z,31.60
2022-08-24T13:05:23.633Z,31.40
2022-08-24T13:07:50.206Z,31.50
2022-08-24T13:10:16.815Z,31.60
2022-08-24T13:12:46.706Z,31.70
2022-08-24T13:15:13.295Z,31.70
2022-08-24T13:17:39.942Z,31.60
2022-08-24T13:20:06.571Z,31.40
2022-08-24T13:22:33.170Z,31.20
2022-08-24T13:24:59.803Z,31.10
2022-08-24T13:27:27.034Z,31.00
2022-08-24T13:29:54.030Z,30.80
2022-08-24T13:32:20.716Z,30.80
2022-08-24T13:34:47.711Z,30.80
2022-08-24T13:37:14.360Z,30.80
2022-08-24T13:39:40.919Z,31.00
2022-08-24T13:42:07.552Z,31.10
2022-08-24T13:44:34.474Z,31.10
2022-08-24T13:47:01.153Z,31.20
2022-08-24T13:49:27.791Z,31.30
2022-08-24T13:51:54.392Z,31.30
2022-08-24T13:54:22.522Z,31.50
2022-08-24T13:56:49.217Z,31.70
2022-08-24T13:59:16.948Z,31.80
2022-08-24T14:01:43.657Z,32.10
2022-08-24T14:04:10.235Z,32.20
2022-08-24T14:06:36.862Z,32.30
2022-08-24T14:09:03.485Z,32.30
2022-08-24T14:11:30.045Z,32.50
2022-08-24T14:13:56.664Z,32.60
2022-08-24T14:16:42.195Z,32.70
2022-08-24T14:19:10.243Z,32.80
2022-08-24T14:21:36.832Z,32.80
2022-08-24T14:24:03.400Z,32.80
2022-08-24T14:26:30.001Z,32.70
2022-08-24T14:28:57.723Z,32.50
2022-08-24T14:31:29.371Z,32.30
2022-08-24T14:33:56.020Z,32.10
2022-08-24T14:36:22.997Z,32.00
2022-08-24T14:38:49.607Z,32.00
2022-08-24T14:41:17.843Z,32.10
2022-08-24T14:43:44.454Z,32.10
2022-08-24T14:46:11.137Z,32.10
2022-08-24T14:48:38.407Z,32.00
2022-08-24T14:51:05.110Z,31.90
2022-08-24T14:53:31.708Z,31.80
2022-08-24T14:56:00.994Z,31.80
2022-08-24T14:58:29.314Z,31.90
2022-08-24T15:00:56.575Z,32.00
2022-08-24T15:03:23.198Z,32.10
2022-08-24T15:06:09.542Z,32.00
2022-08-24T15:08:42.678Z,31.80
2022-08-24T15:11:09.361Z,31.70
2022-08-24T15:13:35.934Z,31.60
2022-08-24T15:16:02.655Z,31.50
2022-08-24T15:18:33.611Z,31.60
2022-08-24T15:21:02.970Z,31.70
2022-08-24T15:23:29.521Z,31.80
2022-08-24T15:25:56.591Z,32.00
2022-08-24T15:28:23.964Z,32.10
2022-08-24T15:30:50.557Z,32.00
2022-08-24T15:33:19.494Z,31.80
2022-08-24T15:35:46.377Z,31.70
2022-08-24T15:38:12.934Z,31.60
2022-08-24T15:40:45.214Z,31.60
2022-08-24T15:43:12.815Z,31.70
2022-08-24T15:45:39.444Z,31.70
2022-08-24T15:48:06.160Z,31.80
2022-08-24T15:50:33.006Z,31.90
2022-08-24T15:53:00.061Z,32.10
2022-08-24T15:55:26.610Z,32.10
2022-08-24T15:57:53.188Z,32.20
2022-08-24T16:00:44.204Z,32.30
2022-08-24T16:03:11.261Z,32.30
2022-08-24T16:05:38.330Z,32.30
2022-08-24T16:08:05.161Z,32.20
2022-08-24T16:10:32.753Z,32.20
2022-08-24T16:12:59.428Z,32.20
2022-08-24T16:15:26.014Z,32.10
2022-08-24T16:17:52.615Z,32.10
2022-08-24T16:20:19.203Z,32.20
2022-08-24T16:22:57.019Z,32.20
2022-08-24T16:25:27.278Z,32.30
2022-08-24T16:27:53.907Z,32.30
2022-08-24T16:30:20.613Z,32.30
2022-08-24T16:32:53.460Z,32.30
2022-08-24T16:35:20.651Z,32.30
2022-08-24T16:37:47.309Z,32.30
2022-08-24T16:40:14.105Z,32.30
2022-08-24T16:42:40.889Z,32.40
2022-08-24T16:45:07.473Z,32.30
2022-08-24T16:47:34.164Z,32.30
2022-08-24T16:50:00.725Z,32.30
2022-08-24T16:52:27.384Z,32.40
2022-08-24T16:54:54.111Z,32.50
2022-08-24T16:57:20.769Z,32.50
2022-08-24T16:59:48.311Z,32.50
2022-08-24T17:02:15.106Z,32.40
2022-08-24T17:04:42.601Z,32.40
2022-08-24T17:07:09.220Z,32.40
2022-08-24T17:09:35.780Z,32.40
2022-08-24T17:12:02.565Z,32.40
2022-08-24T17:14:29.146Z,32.30
2022-08-24T17:16:55.741Z,32.40
2022-08-24T17:19:22.414Z,32.40
2022-08-24T17:21:49.002Z,32.40
2022-08-24T17:24:15.544Z,32.30
2022-08-24T17:26:45.724Z,32.20
2022-08-24T17:29:18.648Z,32.20
2022-08-24T17:31:47.145Z,32.20
2022-08-24T17:34:13.970Z,32.10
2022-08-24T17:36:41.318Z,32.10
2022-08-24T17:39:09.763Z,32.00
2022-08-24T17:41:36.346Z,31.70
2022-08-24T17:44:02.993Z,31.40
2022-08-24T17:46:30.410Z,31.10
2022-08-24T17:48:56.988Z,30.80
2022-08-24T17:51:23.566Z,30.60
2022-08-24T17:53:50.157Z,30.40
2022-08-24T17:56:16.789Z,30.10
2022-08-24T17:59:02.113Z,29.80
2022-08-24T18:01:28.861Z,29.60
2022-08-24T18:03:55.804Z,29.40
2022-08-24T18:06:23.590Z,29.20
2022-08-24T18:08:50.179Z,29.10
2022-08-24T18:11:16.769Z,29.00
2022-08-24T18:13:43.357Z,28.90
2022-08-24T18:16:10.035Z,28.80
2022-08-24T18:18:36.913Z,28.70
2022-08-24T18:21:03.522Z,28.60
2022-08-24T18:23:30.102Z,28.40
2022-08-24T18:25:56.924Z,28.30
2022-08-24T18:28:23.948Z,28.30
2022-08-24T18:30:50.713Z,28.20
2022-08-24T18:35:46.840Z,28.10
2022-08-24T18:38:13.966Z,28.10
2022-08-24T18:40:40.801Z,28.10
2022-08-24T18:43:19.606Z,28.00
2022-08-24T18:45:46.217Z,27.90
2022-08-24T18:48:12.832Z,27.80
2022-08-24T18:50:42.134Z,27.80
2022-08-24T18:53:09.020Z,27.80
2022-08-24T18:55:37.619Z,27.70
2022-08-24T18:58:05.426Z,27.70
2022-08-24T19:00:31.985Z,27.70
2022-08-24T19:02:58.616Z,27.60
2022-08-24T19:05:25.454Z,27.60
2022-08-24T19:07:52.000Z,27.50
2022-08-24T19:10:18.599Z,27.50
2022-08-24T19:12:46.647Z,27.50
2022-08-24T19:15:32.141Z,27.40
2022-08-24T19:18:00.796Z,27.40
2022-08-24T19:20:27.437Z,27.30
2022-08-24T19:22:57.436Z,27.30
2022-08-24T19:25:24.090Z,27.20
2022-08-24T19:27:53.826Z,27.20
2022-08-24T19:30:21.150Z,27.10
2022-08-24T19:32:47.748Z,27.00
2022-08-24T19:35:15.453Z,27.00
2022-08-24T19:37:41.997Z,26.90
2022-08-24T19:40:08.649Z,26.90
2022-08-24T19:42:35.326Z,26.80
2022-08-24T19:45:21.481Z,26.70
2022-08-24T19:47:48.076Z,26.70
2022-08-24T19:50:21.139Z,26.50
2022-08-24T19:52:48.158Z,26.40
2022-08-24T19:55:14.711Z,26.30
2022-08-24T19:57:41.301Z,26.30
2022-08-24T20:00:07.844Z,26.20
2022-08-24T20:02:36.688Z,26.20
2022-08-24T20:05:03.254Z,26.10
2022-08-24T20:07:29.948Z,26.10
2022-08-24T20:09:56.487Z,26.00
2022-08-24T20:12:23.039Z,26.00
2022-08-24T20:14:49.663Z,25.90
2022-08-24T20:17:16.561Z,25.90
2022-08-24T20:19:43.155Z,25.80
2022-08-24T20:22:13.454Z,25.80
2022-08-24T20:24:40.326Z,25.80
2022-08-24T20:27:07.002Z,25.70
2022-08-24T20:29:33.595Z,25.70
2022-08-24T20:32:02.450Z,25.70
2022-08-24T20:34:29.594Z,25.70
2022-08-24T20:36:56.184Z,25.70
2022-08-24T20:39:22.734Z,25.60
2022-08-24T20:41:49.613Z,25.70
2022-08-24T20:44:16.179Z,25.70
2022-08-24T20:46:46.365Z,25.70
2022-08-24T20:49:15.278Z,25.70
2022-08-24T20:51:42.156Z,25.70
2022-08-24T20:54:10.507Z,25.60
2022-08-24T20:56:37.812Z,25.70
2022-08-24T20:59:04.355Z,25.60
2022-08-24T21:01:30.968Z,25.60
2022-08-24T21:04:01.465Z,25.60
2022-08-24T21:06:30.951Z,25.60
2022-08-24T21:08:57.505Z,25.60
2022-08-24T21:11:24.071Z,25.60
2022-08-24T21:13:50.621Z,25.60
2022-08-24T21:16:17.517Z,25.50
2022-08-24T21:18:44.461Z,25.50
2022-08-24T21:21:11.024Z,25.50
2022-08-24T21:23:37.624Z,25.50
2022-08-24T21:26:04.410Z,25.40
2022-08-24T21:28:31.072Z,25.30
2022-08-24T21:30:58.993Z,25.40
2022-08-24T21:33:45.915Z,25.30
2022-08-24T21:36:12.668Z,25.20
2022-08-24T21:38:39.404Z,25.20
2022-08-24T21:41:11.953Z,25.10
2022-08-24T21:43:38.542Z,25.00
2022-08-24T21:46:05.841Z,25.00
2022-08-24T21:48:32.505Z,25.00
2022-08-24T21:50:59.111Z,25.00
2022-08-24T21:53:27.467Z,24.90
2022-08-24T21:55:55.843Z,24.90
2022-08-24T21:58:23.978Z,24.80
2022-08-24T22:00:51.663Z,24.80
2022-08-24T22:03:18.405Z,24.70
2022-08-24T22:05:45.048Z,24.60
2022-08-24T22:08:11.798Z,24.60
2022-08-24T22:10:38.376Z,24.60
2022-08-24T22:13:05.095Z,24.50
2022-08-24T22:15:33.049Z,24.50
2022-08-24T22:17:59.939Z,24.40
2022-08-24T22:20:26.639Z,24.40
2022-08-24T22:22:53.595Z,24.30
2022-08-24T22:25:20.201Z,24.30
2022-08-24T22:27:46.815Z,24.20
2022-08-24T22:30:13.438Z,24.10
2022-08-24T22:32:40.007Z,24.10
2022-08-24T22:35:06.609Z,24.10
2022-08-24T22:37:33.908Z,24.10
2022-08-24T22:40:00.756Z,24.10
2022-08-24T22:42:28.761Z,24.00
2022-08-24T22:44:57.238Z,24.00
2022-08-24T22:47:24.185Z,23.90
2022-08-24T22:49:50.800Z,23.90
2022-08-24T22:52:17.429Z,23.80
2022-08-24T22:54:44.057Z,23.70
2022-08-24T22:57:10.610Z,23.70
2022-08-24T22:59:38.698Z,23.60
2022-08-24T23:02:05.320Z,23.50
2022-08-24T23:04:32.066Z,23.50
2022-08-24T23:06:58.693Z,23.50
2022-08-24T23:09:25.247Z,23.50
2022-08-24T23:11:54.839Z,23.40
2022-08-24T23:14:21.419Z,23.30
2022-08-24T23:16:48.595Z,23.30
2022-08-24T23:19:33.967Z,23.20
2022-08-24T23:22:00.573Z,23.10
2022-08-24T23:24:27.138Z,23.00
2022-08-24T23:26:53.700Z,22.90
2022-08-24T23:29:21.216Z,22.90
2022-08-24T23:31:47.858Z,22.80
2022-08-24T23:34:14.382Z,22.80
2022-08-24T23:36:40.975Z,22.80
2022-08-24T23:39:07.595Z,22.70
2022-08-24T23:41:34.149Z,22.70
2022-08-24T23:44:01.145Z,22.60
2022-08-24T23:46:27.754Z,22.50
2022-08-24T23:48:57.206Z,22.50
2022-08-24T23:51:25.401Z,22.50
2022-08-24T23:53:51.992Z,22.50
2022-08-24T23:56:18.532Z,22.50
2022-08-24T23:58:45.129Z,22.50
